createdAt,value
2023-08-12T00:00:12.602Z,44.08
2023-08-12T00:03:15.872Z,43.83
2023-08-12T00:06:19.039Z,44.08
2023-08-12T00:09:23.565Z,43.63
2023-08-12T00:12:26.631Z,44.01
2023-08-12T00:15:29.688Z,43.70
2023-08-12T00:18:37.735Z,44.03
2023-08-12T00:21:40.811Z,43.84
2023-08-12T00:24:45.655Z,43.75
2023-08-12T00:27:48.768Z,43.90
2023-08-12T00:30:52.114Z,44.02
2023-08-12T00:33:55.212Z,43.85
2023-08-12T00:36:58.406Z,43.85
2023-08-12T00:40:03.366Z,43.83
2023-08-12T00:43:06.593Z,43.83
2023-08-12T00:46:09.700Z,43.88
2023-08-12T00:49:13.840Z,43.78
2023-08-12T00:52:18.698Z,43.98
2023-08-12T00:55:23.783Z,44.07
2023-08-12T00:58:27.068Z,43.71
2023-08-12T01:01:30.277Z,44.12
2023-08-12T01:04:33.515Z,43.93
2023-08-12T01:07:37.026Z,43.91
2023-08-12T01:10:47.402Z,44.00
2023-08-12T01:13:59.789Z,43.72
2023-08-12T01:17:06.285Z,43.70
2023-08-12T01:20:13.892Z,43.74
2023-08-12T01:23:18.626Z,43.68
2023-08-12T01:26:21.679Z,43.74
2023-08-12T01:29:25.230Z,43.79
2023-08-12T01:32:34.910Z,43.44
2023-08-12T01:35:42.334Z,43.54
2023-08-12T01:38:48.219Z,43.37
2023-08-12T01:41:52.809Z,43.55
2023-08-12T01:44:56.510Z,43.54
2023-08-12T01:47:59.937Z,43.33
2023-08-12T01:51:04.189Z,43.14
2023-08-12T01:54:08.807Z,43.24
2023-08-12T01:57:12.494Z,43.34
2023-08-12T02:00:16.106Z,43.23
2023-08-12T02:03:19.261Z,43.35
2023-08-12T02:06:22.445Z,43.36
2023-08-12T02:09:26.958Z,43.13
2023-08-12T02:12:30.023Z,43.28
2023-08-12T02:15:33.056Z,43.40
2023-08-12T02:18:36.570Z,43.02
2023-08-12T02:21:39.646Z,43.18
2023-08-12T02:24:44.052Z,43.40
2023-08-12T02:27:47.132Z,43.16
2023-08-12T02:30:50.196Z,42.88
2023-08-12T02:33:53.297Z,43.14
2023-08-12T02:36:56.403Z,43.02
2023-08-12T02:40:01.302Z,43.20
2023-08-12T02:43:04.539Z,42.94
2023-08-12T02:46:08.313Z,43.15
2023-08-12T02:49:11.408Z,43.22
2023-08-12T02:52:14.493Z,43.14
2023-08-12T02:55:19.232Z,42.82
2023-08-12T02:58:22.463Z,43.04
2023-08-12T03:01:26.109Z,42.90
2023-08-12T03:04:29.236Z,43.41
2023-08-12T03:07:32.367Z,43.43
2023-08-12T03:10:38.787Z,42.96
2023-08-12T03:13:41.960Z,42.70
2023-08-12T03:16:45.077Z,42.67
2023-08-12T03:19:48.120Z,42.60
2023-08-12T03:22:51.229Z,43.03
2023-08-12T03:25:55.706Z,42.49
2023-08-12T03:28:58.740Z,42.66
2023-08-12T03:32:01.826Z,42.56
2023-08-12T03:35:05.234Z,42.70
2023-08-12T03:38:08.300Z,42.55
2023-08-12T03:41:12.857Z,42.54
2023-08-12T03:44:15.978Z,42.87
2023-08-12T03:47:23.080Z,42.81
2023-08-12T03:50:26.204Z,42.50
2023-08-12T03:53:29.261Z,42.25
2023-08-12T03:56:33.841Z,42.69
2023-08-12T03:59:36.897Z,42.51
2023-08-12T04:02:39.970Z,42.82
2023-08-12T04:05:50.865Z,42.72
2023-08-12T04:08:53.941Z,42.37
2023-08-12T04:11:58.604Z,42.77
2023-08-12T04:15:04.463Z,42.86
2023-08-12T04:18:08.349Z,42.79
2023-08-12T04:21:12.265Z,42.62
2023-08-12T04:24:15.484Z,42.31
2023-08-12T04:27:20.196Z,42.52
2023-08-12T04:30:23.540Z,42.63
2023-08-12T04:33:26.770Z,43.75
2023-08-12T04:36:29.904Z,46.39
2023-08-12T04:39:33.532Z,45.76
2023-08-12T04:42:38.068Z,45.56
2023-08-12T04:45:41.287Z,45.36
2023-08-12T04:48:44.517Z,46.00
2023-08-12T04:51:47.587Z,45.38
2023-08-12T04:54:50.702Z,45.19
2023-08-12T04:57:55.228Z,44.82
2023-08-12T05:00:59.425Z,44.46
2023-08-12T05:04:02.486Z,44.45
2023-08-12T05:07:05.600Z,44.56
2023-08-12T05:10:09.531Z,44.47
2023-08-12T05:13:13.922Z,44.35
2023-08-12T05:16:17.115Z,44.52
2023-08-12T05:19:20.180Z,44.46
2023-08-12T05:22:23.209Z,45.25
2023-08-12T05:25:26.442Z,47.69
2023-08-12T05:28:30.958Z,48.20
2023-08-12T05:31:34.088Z,47.97
2023-08-12T05:34:37.190Z,47.45
2023-08-12T05:37:40.213Z,47.82
2023-08-12T05:40:43.410Z,47.38
2023-08-12T05:43:47.865Z,46.94
2023-08-12T05:46:50.954Z,46.00
2023-08-12T05:49:54.050Z,45.21
2023-08-12T05:52:57.236Z,44.76
2023-08-12T05:56:00.508Z,44.94
2023-08-12T05:59:05.103Z,45.24
2023-08-12T06:02:08.184Z,45.07
2023-08-12T06:05:11.627Z,45.09
2023-08-12T06:08:14.927Z,44.64
2023-08-12T06:11:17.990Z,44.16
2023-08-12T06:14:22.722Z,43.68
2023-08-12T06:17:25.915Z,43.98
2023-08-12T06:20:29.003Z,43.76
2023-08-12T06:23:32.347Z,44.34
2023-08-12T06:26:35.594Z,43.55
2023-08-12T06:29:40.137Z,43.19
2023-08-12T06:32:43.376Z,43.27
2023-08-12T06:35:49.889Z,42.40
2023-08-12T06:38:54.204Z,42.09
2023-08-12T06:41:57.288Z,42.13
2023-08-12T06:45:05.263Z,41.79
2023-08-12T06:48:08.853Z,41.29
2023-08-12T06:51:12.482Z,41.16
2023-08-12T06:54:15.557Z,40.91
2023-08-12T06:57:18.684Z,40.79
2023-08-12T07:00:23.260Z,40.66
2023-08-12T07:03:26.939Z,40.34
2023-08-12T07:06:30.074Z,40.14
2023-08-12T07:09:33.166Z,40.36
2023-08-12T07:12:36.351Z,39.95
2023-08-12T07:15:40.882Z,40.28
2023-08-12T07:18:43.957Z,40.07
2023-08-12T07:21:47.049Z,39.89
2023-08-12T07:24:50.120Z,39.70
2023-08-12T07:27:53.238Z,39.71
2023-08-12T07:30:57.685Z,39.76
2023-08-12T07:34:00.827Z,39.41
2023-08-12T07:37:03.875Z,39.82
2023-08-12T07:40:07.852Z,39.47
2023-08-12T07:43:10.902Z,40.01
2023-08-12T07:46:15.851Z,39.41
2023-08-12T07:49:19.184Z,39.64
2023-08-12T07:52:22.276Z,39.55
2023-08-12T07:55:27.280Z,39.37
2023-08-12T07:58:30.543Z,39.55
2023-08-12T08:01:37.951Z,39.27
2023-08-12T08:04:42.259Z,39.27
2023-08-12T08:07:45.385Z,38.82
2023-08-12T08:10:48.432Z,39.15
2023-08-12T08:13:51.536Z,38.65
2023-08-12T08:16:56.337Z,38.97
2023-08-12T08:19:59.565Z,39.31
2023-08-12T08:23:02.587Z,39.05
2023-08-12T08:26:05.762Z,38.94
2023-08-12T08:29:10.039Z,39.05
2023-08-12T08:32:14.718Z,38.57
2023-08-12T08:35:17.976Z,39.21
2023-08-12T08:38:21.247Z,38.64
2023-08-12T08:41:24.577Z,38.94
2023-08-12T08:44:31.669Z,39.21
2023-08-12T08:47:36.361Z,38.59
2023-08-12T08:50:39.825Z,38.39
2023-08-12T08:53:45.470Z,37.89
2023-08-12T08:56:55.107Z,37.76
2023-08-12T09:00:16.311Z,37.84
2023-08-12T09:03:22.690Z,37.92
2023-08-12T09:06:28.823Z,37.85
2023-08-12T09:09:32.643Z,38.20
2023-08-12T09:12:37.661Z,38.42
2023-08-12T09:15:40.810Z,38.72
2023-08-12T09:18:46.418Z,37.50
2023-08-12T09:21:54.826Z,37.28
2023-08-12T09:24:59.443Z,37.41
2023-08-12T09:28:02.876Z,37.69
2023-08-12T09:31:06.012Z,38.83
2023-08-12T09:34:10.510Z,38.96
2023-08-12T09:37:15.216Z,38.39
2023-08-12T09:40:18.661Z,38.20
2023-08-12T09:43:26.052Z,38.32
2023-08-12T09:46:29.785Z,38.77
2023-08-12T09:49:34.832Z,38.55
2023-08-12T09:52:38.141Z,38.40
2023-08-12T09:55:42.847Z,38.04
2023-08-12T09:58:49.861Z,38.42
2023-08-12T10:01:54.884Z,38.63
2023-08-12T10:05:00.948Z,38.52
2023-08-12T10:08:06.129Z,38.20
2023-08-12T10:11:13.301Z,37.83
2023-08-12T10:14:17.592Z,37.77
2023-08-12T10:17:33.142Z,38.06
2023-08-12T10:20:46.534Z,38.63
2023-08-12T10:23:49.713Z,38.84
2023-08-12T10:26:54.008Z,38.46
2023-08-12T10:29:58.796Z,38.41
2023-08-12T10:33:02.538Z,39.19
2023-08-12T10:36:08.308Z,38.10
2023-08-12T10:39:11.996Z,37.42
2023-08-12T10:42:15.341Z,38.28
2023-08-12T10:45:20.013Z,38.79
2023-08-12T10:48:26.157Z,39.20
2023-08-12T10:51:48.912Z,38.92
2023-08-12T10:54:51.921Z,38.68
2023-08-12T10:57:57.147Z,38.68
2023-08-12T11:01:00.707Z,37.92
2023-08-12T11:04:03.930Z,38.21
2023-08-12T11:07:18.665Z,38.29
2023-08-12T11:10:26.272Z,38.39
2023-08-12T11:13:30.165Z,38.13
2023-08-12T11:16:37.945Z,37.75
2023-08-12T11:19:41.177Z,37.83
2023-08-12T11:22:46.738Z,37.40
2023-08-12T11:25:51.357Z,37.38
2023-08-12T11:28:55.846Z,37.33
2023-08-12T11:31:59.580Z,37.81
2023-08-12T11:35:02.944Z,38.20
2023-08-12T11:38:08.741Z,38.19
2023-08-12T11:41:12.320Z,38.41
2023-08-12T11:44:18.151Z,38.08
2023-08-12T11:47:21.265Z,38.24
2023-08-12T11:50:26.139Z,38.11
2023-08-12T11:53:30.816Z,38.25
2023-08-12T11:56:34.443Z,38.16
2023-08-12T11:59:38.831Z,38.09
2023-08-12T12:02:44.078Z,38.24
2023-08-12T12:05:49.952Z,38.39
2023-08-12T12:08:55.479Z,37.77
2023-08-12T12:11:58.570Z,36.54
2023-08-12T12:15:01.694Z,36.49
2023-08-12T12:18:05.114Z,36.50
2023-08-12T12:21:08.213Z,36.62
2023-08-12T12:24:12.707Z,36.65
2023-08-12T12:27:16.529Z,35.74
2023-08-12T12:30:20.466Z,34.42
2023-08-12T12:33:23.879Z,33.56
2023-08-12T12:36:27.259Z,33.40
2023-08-12T12:39:32.589Z,33.62
2023-08-12T12:42:35.801Z,33.91
2023-08-12T12:45:39.007Z,34.80
2023-08-12T12:48:42.097Z,34.74
2023-08-12T12:51:45.178Z,35.43
2023-08-12T12:54:49.645Z,35.07
2023-08-12T12:57:52.772Z,34.84
2023-08-12T13:00:55.938Z,34.91
2023-08-12T13:03:59.018Z,34.54
2023-08-12T13:07:02.483Z,35.08
2023-08-12T13:10:08.432Z,34.91
2023-08-12T13:13:11.759Z,35.62
2023-08-12T13:16:15.061Z,36.32
2023-08-12T13:19:18.163Z,36.36
2023-08-12T13:22:21.329Z,36.79
2023-08-12T13:25:25.801Z,36.84
2023-08-12T13:28:28.984Z,37.17
2023-08-12T13:31:32.127Z,36.69
2023-08-12T13:34:35.216Z,37.85
2023-08-12T13:37:38.378Z,37.40
2023-08-12T13:40:42.902Z,37.30
2023-08-12T13:43:46.031Z,37.32
2023-08-12T13:46:49.121Z,37.32
2023-08-12T13:49:52.572Z,37.79
2023-08-12T13:52:55.611Z,36.86
2023-08-12T13:56:00.087Z,36.77
2023-08-12T13:59:03.127Z,36.64
2023-08-12T14:02:06.329Z,36.59
2023-08-12T14:05:11.351Z,36.56
2023-08-12T14:08:14.419Z,36.95
2023-08-12T14:11:44.283Z,36.99
2023-08-12T14:14:47.421Z,37.35
2023-08-12T14:17:50.627Z,36.84
2023-08-12T14:20:53.775Z,36.13
2023-08-12T14:24:02.796Z,35.51
2023-08-12T14:27:07.710Z,35.37
2023-08-12T14:30:12.281Z,35.36
2023-08-12T14:33:15.346Z,35.31
2023-08-12T14:36:18.454Z,35.20
2023-08-12T14:39:22.993Z,35.51
2023-08-12T14:42:27.702Z,36.10
2023-08-12T14:45:31.125Z,36.28
2023-08-12T14:48:34.675Z,36.60
2023-08-12T15:00:00.515Z,37.30
2023-08-12T15:03:04.592Z,37.67
2023-08-12T15:06:08.190Z,38.10
2023-08-12T15:09:11.663Z,37.42
2023-08-12T15:12:14.737Z,37.05
2023-08-12T15:15:19.704Z,37.32
2023-08-12T15:18:22.866Z,37.68
2023-08-12T15:21:25.954Z,37.35
2023-08-12T15:24:29.059Z,37.62
2023-08-12T15:27:32.714Z,37.43
2023-08-12T15:30:37.554Z,37.92
2023-08-12T15:33:40.762Z,37.89
2023-08-12T15:36:44.118Z,38.10
2023-08-12T15:39:47.824Z,37.63
2023-08-12T15:42:51.232Z,38.16
2023-08-12T15:45:55.800Z,37.81
2023-08-12T15:48:58.897Z,38.13
2023-08-12T15:52:03.582Z,38.08
2023-08-12T15:55:07.569Z,38.66
2023-08-12T15:58:10.923Z,38.68
2023-08-12T16:01:15.462Z,38.58
2023-08-12T16:04:19.319Z,38.85
2023-08-12T16:07:22.404Z,38.55
2023-08-12T16:10:25.673Z,38.75
2023-08-12T16:13:28.795Z,39.08
2023-08-12T16:16:34.015Z,38.75
2023-08-12T16:19:37.755Z,38.93
2023-08-12T16:22:40.960Z,38.89
2023-08-12T16:25:44.313Z,38.63
2023-08-12T16:28:47.602Z,39.31
2023-08-12T16:31:52.294Z,38.76
2023-08-12T16:34:55.409Z,38.80
2023-08-12T16:37:58.681Z,38.83
2023-08-12T16:41:01.853Z,38.71
2023-08-12T16:44:05.232Z,38.59
2023-08-12T16:47:09.763Z,38.82
2023-08-12T16:50:18.965Z,38.70
2023-08-12T16:53:22.152Z,38.53
2023-08-12T16:56:25.252Z,38.35
2023-08-12T16:59:28.432Z,38.66
2023-08-12T17:02:33.207Z,38.67
2023-08-12T17:05:36.374Z,38.48
2023-08-12T17:08:39.703Z,38.64
2023-08-12T17:11:42.834Z,39.14
2023-08-12T17:14:45.987Z,39.11
2023-08-12T17:17:50.646Z,38.90
2023-08-12T17:20:54.007Z,38.59
2023-08-12T17:23:57.099Z,38.80
2023-08-12T17:27:00.161Z,38.75
2023-08-12T17:30:03.313Z,39.18
2023-08-12T17:33:07.937Z,39.32
2023-08-12T17:36:11.469Z,39.23
2023-08-12T17:39:14.638Z,39.26
2023-08-12T17:42:19.087Z,39.08
2023-08-12T17:45:22.475Z,39.14
2023-08-12T17:48:26.978Z,39.13
2023-08-12T17:51:30.122Z,39.29
2023-08-12T17:54:33.293Z,39.42
2023-08-12T17:57:36.378Z,39.37
2023-08-12T18:00:39.490Z,39.68
2023-08-12T18:03:44.164Z,38.88
2023-08-12T18:06:47.265Z,39.08
2023-08-12T18:09:50.451Z,39.15
2023-08-12T18:12:53.504Z,38.96
2023-08-12T18:15:56.676Z,38.93
2023-08-12T18:19:01.350Z,39.11
2023-08-12T18:22:04.804Z,39.39
2023-08-12T18:25:08.061Z,39.12
2023-08-12T18:28:11.250Z,39.25
2023-08-12T18:31:14.457Z,39.45
2023-08-12T18:34:19.084Z,39.59
2023-08-12T18:37:22.207Z,39.62
2023-08-12T18:40:25.259Z,39.56
2023-08-12T18:43:28.365Z,39.81
2023-08-12T18:46:31.431Z,39.84
2023-08-12T18:49:35.993Z,39.65
2023-08-12T18:52:40.045Z,40.10
2023-08-12T18:55:43.133Z,40.13
2023-08-12T18:58:46.374Z,39.98
2023-08-12T19:01:49.655Z,40.28
2023-08-12T19:04:54.090Z,40.30
2023-08-12T19:07:57.229Z,39.97
2023-08-12T19:11:00.980Z,40.62
2023-08-12T19:14:04.257Z,40.31
2023-08-12T19:17:07.415Z,40.38
2023-08-12T19:20:14.001Z,40.58
2023-08-12T19:23:17.142Z,40.46
2023-08-12T19:26:20.929Z,40.74
2023-08-12T19:29:24.026Z,40.41
2023-08-12T19:32:27.085Z,40.87
2023-08-12T19:35:31.758Z,40.61
2023-08-12T19:38:35.124Z,40.44
2023-08-12T19:41:38.251Z,40.74
2023-08-12T19:44:41.356Z,40.63
2023-08-12T19:47:46.062Z,40.94
2023-08-12T19:50:54.198Z,40.92
2023-08-12T19:53:57.388Z,40.66
2023-08-12T19:57:00.465Z,40.90
2023-08-12T20:00:05.333Z,41.30
2023-08-12T20:03:08.785Z,41.17
2023-08-12T20:06:13.732Z,40.81
2023-08-12T20:09:16.762Z,41.28
2023-08-12T20:12:19.849Z,41.37
2023-08-12T20:15:22.944Z,41.31
2023-08-12T20:18:26.330Z,41.17
2023-08-12T20:21:31.050Z,41.54
2023-08-12T20:24:34.477Z,41.77
2023-08-12T20:27:37.605Z,41.41
2023-08-12T20:30:40.710Z,41.19
2023-08-12T20:33:43.835Z,41.65
2023-08-12T20:36:48.504Z,41.51
2023-08-12T20:39:51.700Z,41.40
2023-08-12T20:42:54.971Z,42.08
2023-08-12T20:45:58.222Z,41.87
2023-08-12T20:49:01.271Z,42.07
2023-08-12T20:52:06.345Z,41.93
2023-08-12T20:55:10.457Z,42.14
2023-08-12T20:58:13.627Z,42.10
2023-08-12T21:01:16.839Z,42.21
2023-08-12T21:04:19.968Z,42.25
2023-08-12T21:07:24.539Z,42.21
2023-08-12T21:10:27.800Z,42.50
2023-08-12T21:13:30.875Z,42.15
2023-08-12T21:16:34.338Z,42.62
2023-08-12T21:19:37.432Z,42.20
2023-08-12T21:22:48.782Z,42.39
2023-08-12T21:25:52.025Z,42.33
2023-08-12T21:28:55.224Z,42.44
2023-08-12T21:31:58.455Z,42.13
2023-08-12T21:35:02.389Z,42.22
2023-08-12T21:38:07.009Z,42.04
2023-08-12T21:41:10.120Z,42.31
2023-08-12T21:44:13.208Z,42.22
2023-08-12T21:47:16.355Z,42.12
2023-08-12T21:50:19.810Z,42.23
2023-08-12T21:53:24.401Z,42.26
2023-08-12T21:56:27.629Z,42.70
2023-08-12T21:59:30.917Z,42.63
2023-08-12T22:02:34.138Z,42.49
2023-08-12T22:05:37.339Z,42.40
2023-08-12T22:08:42.112Z,42.17
2023-08-12T22:11:45.253Z,42.21
2023-08-12T22:14:48.336Z,42.49
2023-08-12T22:17:51.492Z,42.52
2023-08-12T22:20:55.451Z,42.77
2023-08-12T22:23:59.908Z,43.01
2023-08-12T22:27:03.128Z,42.94
2023-08-12T22:30:07.406Z,42.76
2023-08-12T22:33:10.639Z,42.43
2023-08-12T22:36:13.911Z,42.46
2023-08-12T22:39:18.452Z,42.43
2023-08-12T22:42:21.579Z,42.34
2023-08-12T22:45:24.695Z,42.52
2023-08-12T22:48:27.931Z,42.37
2023-08-12T22:51:31.095Z,42.59
2023-08-12T22:54:35.522Z,42.53
2023-08-12T22:57:38.697Z,42.33
2023-08-12T23:00:41.781Z,42.59
2023-08-12T23:03:44.980Z,42.59
2023-08-12T23:06:48.115Z,42.69
2023-08-12T23:09:53.709Z,42.08
2023-08-12T23:12:56.848Z,42.62
2023-08-12T23:15:59.959Z,42.48
2023-08-12T23:19:03.372Z,42.42
2023-08-12T23:22:06.710Z,42.53
2023-08-12T23:25:12.022Z,42.63
2023-08-12T23:28:15.156Z,42.45
2023-08-12T23:31:18.879Z,42.49
2023-08-12T23:34:22.132Z,42.61
2023-08-12T23:37:25.476Z,42.23
2023-08-12T23:40:30.658Z,43.18
2023-08-12T23:43:33.812Z,43.03
2023-08-12T23:46:36.914Z,43.61
2023-08-12T23:49:40.060Z,43.76
2023-08-12T23:52:43.224Z,44.06
2023-08-12T23:55:47.683Z,44.15
2023-08-12T23:58:50.765Z,44.29
